sensor_id;sensor_type;location;lat;lon;timestamp;temperature;humidity
7004;DHT22;3542;48.812;9.146;2022-12-11T00:02:18;-2.50;99.90
7004;DHT22;3542;48.812;9.146;2022-12-11T00:04:44;-2.60;99.90
7004;DHT22;3542;48.812;9.146;2022-12-11T00:07:10;-2.60;99.90
7004;DHT22;3542;48.812;9.146;2022-12-11T00:09:35;-2.60;99.90
7004;DHT22;3542;48.812;9.146;2022-12-11T00:12:01;-2.60;99.90
7004;DHT22;3542;48.812;9.146;2022-12-11T00:14:27;-2.60;99.90
7004;DHT22;3542;48.812;9.146;2022-12-11T00:16:53;-2.50;99.90
7004;DHT22;3542;48.812;9.146;2022-12-11T00:19:19;-2.50;99.90
7004;DHT22;3542;48.812;9.146;2022-12-11T00:21:45;-2.60;99.90
7004;DHT22;3542;48.812;9.146;2022-12-11T00:24:10;-2.50;99.90
7004;DHT22;3542;48.812;9.146;2022-12-11T00:26:36;-2.50;99.90
7004;DHT22;3542;48.812;9.146;2022-12-11T00:29:02;-2.40;99.90
7004;DHT22;3542;48.812;9.146;2022-12-11T00:31:27;-2.40;99.90
7004;DHT22;3542;48.812;9.146;2022-12-11T00:33:53;-2.40;99.90
7004;DHT22;3542;48.812;9.146;2022-12-11T00:36:21;-2.30;99.90
7004;DHT22;3542;48.812;9.146;2022-12-11T00:38:47;-2.30;99.90
7004;DHT22;3542;48.812;9.146;2022-12-11T00:41:13;-2.20;99.90
7004;DHT22;3542;48.812;9.146;2022-12-11T00:43:39;-2.20;99.90
7004;DHT22;3542;48.812;9.146;2022-12-11T00:46:04;-2.10;99.90
7004;DHT22;3542;48.812;9.146;2022-12-11T00:48:30;-2.10;99.90
7004;DHT22;3542;48.812;9.146;2022-12-11T00:50:56;-2.00;99.90
7004;DHT22;3542;48.812;9.146;2022-12-11T00:53:22;-2.00;99.90
7004;DHT22;3542;48.812;9.146;2022-12-11T00:55:48;-1.90;99.90
7004;DHT22;3542;48.812;9.146;2022-12-11T00:58:14;-1.90;99.90
7004;DHT22;3542;48.812;9.146;2022-12-11T01:00:41;-1.80;99.90
7004;DHT22;3542;48.812;9.146;2022-12-11T01:03:07;-1.80;99.90
7004;DHT22;3542;48.812;9.146;2022-12-11T01:05:33;-1.70;99.90
7004;DHT22;3542;48.812;9.146;2022-12-11T01:07:59;-1.70;99.90
7004;DHT22;3542;48.812;9.146;2022-12-11T01:10:25;-1.70;99.90
7004;DHT22;3542;48.812;9.146;2022-12-11T01:12:58;-1.60;99.90
7004;DHT22;3542;48.812;9.146;2022-12-11T01:15:27;-1.60;99.90
7004;DHT22;3542;48.812;9.146;2022-12-11T01:17:53;-1.50;99.90
7004;DHT22;3542;48.812;9.146;2022-12-11T01:20:20;-1.50;99.90
7004;DHT22;3542;48.812;9.146;2022-12-11T01:22:46;-1.50;99.90
7004;DHT22;3542;48.812;9.146;2022-12-11T01:25:12;-1.50;99.90
7004;DHT22;3542;48.812;9.146;2022-12-11T01:27:38;-1.40;99.90
7004;DHT22;3542;48.812;9.146;2022-12-11T01:30:06;-1.30;99.90
7004;DHT22;3542;48.812;9.146;2022-12-11T01:32:33;-1.30;99.90
7004;DHT22;3542;48.812;9.146;2022-12-11T01:34:58;-1.30;99.90
7004;DHT22;3542;48.812;9.146;2022-12-11T01:37:24;-1.30;99.90
7004;DHT22;3542;48.812;9.146;2022-12-11T01:39:50;-1.30;99.90
7004;DHT22;3542;48.812;9.146;2022-12-11T01:42:19;-1.20;99.90
7004;DHT22;3542;48.812;9.146;2022-12-11T01:47:10;-1.20;99.90
7004;DHT22;3542;48.812;9.146;2022-12-11T01:49:38;-1.10;99.90
7004;DHT22;3542;48.812;9.146;2022-12-11T01:52:20;-1.10;99.90
7004;DHT22;3542;48.812;9.146;2022-12-11T01:54:46;-1.10;99.90
7004;DHT22;3542;48.812;9.146;2022-12-11T01:57:13;-1.10;99.90
7004;DHT22;3542;48.812;9.146;2022-12-11T01:59:43;-1.10;99.90
7004;DHT22;3542;48.812;9.146;2022-12-11T03:35:32;-0.80;99.90
7004;DHT22;3542;48.812;9.146;2022-12-11T03:38:04;-0.80;99.90
7004;DHT22;3542;48.812;9.146;2022-12-11T03:40:32;-0.90;99.90
7004;DHT22;3542;48.812;9.146;2022-12-11T03:42:59;-0.90;99.90
7004;DHT22;3542;48.812;9.146;2022-12-11T03:45:26;-0.90;99.90
7004;DHT22;3542;48.812;9.146;2022-12-11T03:47:55;-0.90;99.90
7004;DHT22;3542;48.812;9.146;2022-12-11T03:50:23;-0.90;99.90
7004;DHT22;3542;48.812;9.146;2022-12-11T03:52:51;-0.90;99.90
7004;DHT22;3542;48.812;9.146;2022-12-11T03:55:18;-1.00;99.90
7004;DHT22;3542;48.812;9.146;2022-12-11T03:57:45;-1.00;99.90
7004;DHT22;3542;48.812;9.146;2022-12-11T04:00:14;-1.00;99.90
7004;DHT22;3542;48.812;9.146;2022-12-11T04:02:40;-1.00;99.90
7004;DHT22;3542;48.812;9.146;2022-12-11T04:05:07;-1.00;99.90
7004;DHT22;3542;48.812;9.146;2022-12-11T04:07:32;-1.00;99.90
7004;DHT22;3542;48.812;9.146;2022-12-11T04:09:58;-0.90;99.90
7004;DHT22;3542;48.812;9.146;2022-12-11T04:12:24;-0.90;99.90
7004;DHT22;3542;48.812;9.146;2022-12-11T04:14:50;-0.90;99.90
7004;DHT22;3542;48.812;9.146;2022-12-11T04:17:32;-0.90;99.90
7004;DHT22;3542;48.812;9.146;2022-12-11T04:20:16;-0.90;99.90
7004;DHT22;3542;48.812;9.146;2022-12-11T04:23:05;-0.90;99.90
7004;DHT22;3542;48.812;9.146;2022-12-11T04:25:49;-1.00;99.90
7004;DHT22;3542;48.812;9.146;2022-12-11T04:28:15;-1.00;99.90
7004;DHT22;3542;48.812;9.146;2022-12-11T04:30:47;-1.00;99.90
7004;DHT22;3542;48.812;9.146;2022-12-11T04:33:13;-1.00;99.90
7004;DHT22;3542;48.812;9.146;2022-12-11T04:35:38;-1.00;99.90
7004;DHT22;3542;48.812;9.146;2022-12-11T04:38:04;-0.90;99.90
7004;DHT22;3542;48.812;9.146;2022-12-11T04:40:30;-0.90;99.90
7004;DHT22;3542;48.812;9.146;2022-12-11T04:42:55;-0.90;99.90
7004;DHT22;3542;48.812;9.146;2022-12-11T04:45:21;-0.90;99.90
7004;DHT22;3542;48.812;9.146;2022-12-11T04:47:46;-1.00;99.90
7004;DHT22;3542;48.812;9.146;2022-12-11T04:50:13;-1.00;99.90
7004;DHT22;3542;48.812;9.146;2022-12-11T04:52:39;-0.90;99.90
7004;DHT22;3542;48.812;9.146;2022-12-11T04:55:06;-0.90;99.90
7004;DHT22;3542;48.812;9.146;2022-12-11T04:57:32;-1.00;99.90
7004;DHT22;3542;48.812;9.146;2022-12-11T04:59:58;-0.90;99.90
7004;DHT22;3542;48.812;9.146;2022-12-11T05:02:24;-1.00;99.90
7004;DHT22;3542;48.812;9.146;2022-12-11T05:04:50;-1.00;99.90
7004;DHT22;3542;48.812;9.146;2022-12-11T05:07:16;-1.00;99.90
7004;DHT22;3542;48.812;9.146;2022-12-11T05:09:42;-1.00;99.90
7004;DHT22;3542;48.812;9.146;2022-12-11T05:12:07;-0.90;99.90
7004;DHT22;3542;48.812;9.146;2022-12-11T05:14:33;-0.80;99.90
7004;DHT22;3542;48.812;9.146;2022-12-11T05:16:59;-0.90;99.90
7004;DHT22;3542;48.812;9.146;2022-12-11T05:19:24;-0.90;99.90
7004;DHT22;3542;48.812;9.146;2022-12-11T05:21:50;-0.90;99.90
7004;DHT22;3542;48.812;9.146;2022-12-11T05:24:16;-0.90;99.90
7004;DHT22;3542;48.812;9.146;2022-12-11T05:26:41;-0.90;99.90
7004;DHT22;3542;48.812;9.146;2022-12-11T05:29:07;-0.90;99.90
7004;DHT22;3542;48.812;9.146;2022-12-11T05:31:32;-1.00;99.90
7004;DHT22;3542;48.812;9.146;2022-12-11T05:33:58;-1.00;99.90
7004;DHT22;3542;48.812;9.146;2022-12-11T05:36:26;-1.10;99.90
7004;DHT22;3542;48.812;9.146;2022-12-11T05:38:52;-1.10;99.90
7004;DHT22;3542;48.812;9.146;2022-12-11T05:41:22;-1.20;99.90
7004;DHT22;3542;48.812;9.146;2022-12-11T05:43:47;-1.20;99.90
7004;DHT22;3542;48.812;9.146;2022-12-11T05:46:18;-1.30;99.90
7004;DHT22;3542;48.812;9.146;2022-12-11T05:48:46;-1.40;99.90
7004;DHT22;3542;48.812;9.146;2022-12-11T05:51:13;-1.50;99.90
7004;DHT22;3542;48.812;9.146;2022-12-11T05:53:40;-1.50;99.90
7004;DHT22;3542;48.812;9.146;2022-12-11T05:56:10;-1.60;99.90
7004;DHT22;3542;48.812;9.146;2022-12-11T05:58:37;-1.60;99.90
7004;DHT22;3542;48.812;9.146;2022-12-11T06:01:07;-1.70;99.90
7004;DHT22;3542;48.812;9.146;2022-12-11T06:03:33;-1.70;99.90
7004;DHT22;3542;48.812;9.146;2022-12-11T06:06:03;-1.70;99.90
7004;DHT22;3542;48.812;9.146;2022-12-11T06:08:29;-1.70;99.90
7004;DHT22;3542;48.812;9.146;2022-12-11T06:10:54;-1.80;99.90
7004;DHT22;3542;48.812;9.146;2022-12-11T06:13:20;-1.80;99.90
7004;DHT22;3542;48.812;9.146;2022-12-11T06:15:46;-1.90;99.90
7004;DHT22;3542;48.812;9.146;2022-12-11T06:18:11;-1.90;99.90
7004;DHT22;3542;48.812;9.146;2022-12-11T06:20:37;-2.00;99.90
7004;DHT22;3542;48.812;9.146;2022-12-11T06:23:03;-2.10;99.90
7004;DHT22;3542;48.812;9.146;2022-12-11T06:25:29;-2.10;99.90
7004;DHT22;3542;48.812;9.146;2022-12-11T06:27:54;-2.20;99.90
7004;DHT22;3542;48.812;9.146;2022-12-11T06:30:20;-2.30;99.90
7004;DHT22;3542;48.812;9.146;2022-12-11T06:32:46;-2.30;99.90
7004;DHT22;3542;48.812;9.146;2022-12-11T06:35:12;-2.40;99.90
7004;DHT22;3542;48.812;9.146;2022-12-11T06:37:38;-2.40;99.90
7004;DHT22;3542;48.812;9.146;2022-12-11T06:40:06;-2.50;99.90
7004;DHT22;3542;48.812;9.146;2022-12-11T06:42:33;-2.50;99.90
7004;DHT22;3542;48.812;9.146;2022-12-11T06:44:58;-2.60;99.90
7004;DHT22;3542;48.812;9.146;2022-12-11T06:47:30;-2.60;99.90
7004;DHT22;3542;48.812;9.146;2022-12-11T06:49:56;-2.70;99.90
7004;DHT22;3542;48.812;9.146;2022-12-11T06:52:23;-2.70;99.90
7004;DHT22;3542;48.812;9.146;2022-12-11T06:54:49;-2.80;99.90
7004;DHT22;3542;48.812;9.146;2022-12-11T06:57:15;-2.80;99.90
7004;DHT22;3542;48.812;9.146;2022-12-11T06:59:41;-2.80;99.90
7004;DHT22;3542;48.812;9.146;2022-12-11T07:02:10;-2.80;99.90
7004;DHT22;3542;48.812;9.146;2022-12-11T07:04:36;-2.80;99.90
7004;DHT22;3542;48.812;9.146;2022-12-11T07:07:02;-2.80;99.90
7004;DHT22;3542;48.812;9.146;2022-12-11T07:09:27;-2.80;99.90
7004;DHT22;3542;48.812;9.146;2022-12-11T07:11:53;-2.80;99.90
7004;DHT22;3542;48.812;9.146;2022-12-11T07:14:20;-2.80;99.90
7004;DHT22;3542;48.812;9.146;2022-12-11T07:16:45;-2.80;99.90
7004;DHT22;3542;48.812;9.146;2022-12-11T07:19:11;-2.70;99.90
7004;DHT22;3542;48.812;9.146;2022-12-11T07:21:36;-2.80;99.90
7004;DHT22;3542;48.812;9.146;2022-12-11T07:24:02;-2.80;99.90
7004;DHT22;3542;48.812;9.146;2022-12-11T07:26:28;-2.70;99.90
7004;DHT22;3542;48.812;9.146;2022-12-11T07:28:57;-2.70;99.90
7004;DHT22;3542;48.812;9.146;2022-12-11T07:31:24;-2.70;99.90
7004;DHT22;3542;48.812;9.146;2022-12-11T07:34:01;-2.60;99.90
7004;DHT22;3542;48.812;9.146;2022-12-11T07:36:29;-2.60;99.90
7004;DHT22;3542;48.812;9.146;2022-12-11T07:38:55;-2.60;99.90
7004;DHT22;3542;48.812;9.146;2022-12-11T07:41:20;-2.50;99.90
7004;DHT22;3542;48.812;9.146;2022-12-11T07:43:46;-2.40;99.90
7004;DHT22;3542;48.812;9.146;2022-12-11T07:46:17;-2.30;99.90
7004;DHT22;3542;48.812;9.146;2022-12-11T07:48:44;-2.30;99.90
7004;DHT22;3542;48.812;9.146;2022-12-11T07:51:16;-2.20;99.90
7004;DHT22;3542;48.812;9.146;2022-12-11T07:53:46;-2.10;99.90
7004;DHT22;3542;48.812;9.146;2022-12-11T07:56:12;-2.00;99.90
7004;DHT22;3542;48.812;9.146;2022-12-11T07:58:38;-2.00;99.90
7004;DHT22;3542;48.812;9.146;2022-12-11T08:01:05;-1.90;99.90
7004;DHT22;3542;48.812;9.146;2022-12-11T08:03:30;-1.90;99.90
7004;DHT22;3542;48.812;9.146;2022-12-11T08:05:56;-1.80;99.90
7004;DHT22;3542;48.812;9.146;2022-12-11T08:08:21;-1.70;99.90
7004;DHT22;3542;48.812;9.146;2022-12-11T08:10:47;-1.70;99.90
7004;DHT22;3542;48.812;9.146;2022-12-11T08:13:12;-1.60;99.90
7004;DHT22;3542;48.812;9.146;2022-12-11T08:15:38;-1.50;99.90
7004;DHT22;3542;48.812;9.146;2022-12-11T08:18:04;-1.40;99.90
7004;DHT22;3542;48.812;9.146;2022-12-11T08:20:29;-1.40;99.90
7004;DHT22;3542;48.812;9.146;2022-12-11T08:22:55;-1.30;99.90
7004;DHT22;3542;48.812;9.146;2022-12-11T08:25:21;-1.10;99.90
7004;DHT22;3542;48.812;9.146;2022-12-11T08:27:47;-1.10;99.90
7004;DHT22;3542;48.812;9.146;2022-12-11T08:30:13;-1.00;99.90
7004;DHT22;3542;48.812;9.146;2022-12-11T08:32:38;-1.00;99.90
7004;DHT22;3542;48.812;9.146;2022-12-11T08:35:04;-1.00;99.90
7004;DHT22;3542;48.812;9.146;2022-12-11T08:37:29;-0.90;99.90
7004;DHT22;3542;48.812;9.146;2022-12-11T08:39:55;-0.90;99.90
7004;DHT22;3542;48.812;9.146;2022-12-11T08:42:21;-0.90;99.90
7004;DHT22;3542;48.812;9.146;2022-12-11T08:44:46;-0.80;99.90
7004;DHT22;3542;48.812;9.146;2022-12-11T08:47:12;-0.80;99.90
7004;DHT22;3542;48.812;9.146;2022-12-11T08:49:39;-0.70;99.90
7004;DHT22;3542;48.812;9.146;2022-12-11T08:52:05;-0.60;99.90
7004;DHT22;3542;48.812;9.146;2022-12-11T08:54:30;-0.70;99.90
7004;DHT22;3542;48.812;9.146;2022-12-11T08:56:56;-0.60;99.90
7004;DHT22;3542;48.812;9.146;2022-12-11T08:59:21;-0.60;99.90
7004;DHT22;3542;48.812;9.146;2022-12-11T09:01:47;-0.60;99.90
7004;DHT22;3542;48.812;9.146;2022-12-11T09:04:13;-0.60;99.90
7004;DHT22;3542;48.812;9.146;2022-12-11T09:06:38;-0.50;99.90
7004;DHT22;3542;48.812;9.146;2022-12-11T09:09:04;-0.50;99.90
7004;DHT22;3542;48.812;9.146;2022-12-11T09:11:33;-0.40;99.90
7004;DHT22;3542;48.812;9.146;2022-12-11T09:13:59;-0.40;99.90
7004;DHT22;3542;48.812;9.146;2022-12-11T09:16:26;-0.30;99.90
7004;DHT22;3542;48.812;9.146;2022-12-11T09:18:54;-0.30;99.90
7004;DHT22;3542;48.812;9.146;2022-12-11T09:21:22;-0.20;99.90
7004;DHT22;3542;48.812;9.146;2022-12-11T09:23:51;0.00;99.90
7004;DHT22;3542;48.812;9.146;2022-12-11T09:26:17;0.00;99.90
7004;DHT22;3542;48.812;9.146;2022-12-11T09:28:43;0.20;99.90
7004;DHT22;3542;48.812;9.146;2022-12-11T09:31:09;0.20;99.90
7004;DHT22;3542;48.812;9.146;2022-12-11T09:33:35;0.30;99.90
7004;DHT22;3542;48.812;9.146;2022-12-11T09:36:01;0.50;99.90
7004;DHT22;3542;48.812;9.146;2022-12-11T09:38:27;0.70;99.90
7004;DHT22;3542;48.812;9.146;2022-12-11T09:40:53;0.80;99.90
7004;DHT22;3542;48.812;9.146;2022-12-11T09:43:43;1.00;99.90
7004;DHT22;3542;48.812;9.146;2022-12-11T09:46:12;1.10;99.90
7004;DHT22;3542;48.812;9.146;2022-12-11T09:48:42;1.20;99.90
7004;DHT22;3542;48.812;9.146;2022-12-11T09:51:29;1.30;99.90
7004;DHT22;3542;48.812;9.146;2022-12-11T09:53:59;1.30;99.90
7004;DHT22;3542;48.812;9.146;2022-12-11T09:56:37;1.30;99.90
7004;DHT22;3542;48.812;9.146;2022-12-11T09:59:22;1.40;99.90
7004;DHT22;3542;48.812;9.146;2022-12-11T10:07:29;1.50;99.90
7004;DHT22;3542;48.812;9.146;2022-12-11T10:10:18;1.40;99.90
7004;DHT22;3542;48.812;9.146;2022-12-11T10:12:57;1.40;99.90
7004;DHT22;3542;48.812;9.146;2022-12-11T10:18:13;1.30;99.90
7004;DHT22;3542;48.812;9.146;2022-12-11T10:20:40;1.30;99.90
7004;DHT22;3542;48.812;9.146;2022-12-11T10:23:08;1.30;99.90
7004;DHT22;3542;48.812;9.146;2022-12-11T10:25:45;1.40;99.90
7004;DHT22;3542;48.812;9.146;2022-12-11T10:28:15;1.40;99.90
7004;DHT22;3542;48.812;9.146;2022-12-11T10:30:49;1.40;99.90
7004;DHT22;3542;48.812;9.146;2022-12-11T10:33:26;1.40;99.90
7004;DHT22;3542;48.812;9.146;2022-12-11T10:35:56;1.50;99.90
7004;DHT22;3542;48.812;9.146;2022-12-11T10:38:32;1.50;99.90
7004;DHT22;3542;48.812;9.146;2022-12-11T10:41:01;1.50;99.90
7004;DHT22;3542;48.812;9.146;2022-12-11T10:43:38;1.40;99.90
7004;DHT22;3542;48.812;9.146;2022-12-11T10:46:11;1.50;99.90
7004;DHT22;3542;48.812;9.146;2022-12-11T10:48:49;1.50;99.90
7004;DHT22;3542;48.812;9.146;2022-12-11T10:51:17;1.60;99.90
7004;DHT22;3542;48.812;9.146;2022-12-11T10:53:47;1.60;99.90
7004;DHT22;3542;48.812;9.146;2022-12-11T10:56:13;1.60;99.90
7004;DHT22;3542;48.812;9.146;2022-12-11T10:58:47;1.60;99.90
7004;DHT22;3542;48.812;9.146;2022-12-11T11:01:15;1.70;99.90
7004;DHT22;3542;48.812;9.146;2022-12-11T11:06:22;1.80;99.90
7004;DHT22;3542;48.812;9.146;2022-12-11T11:08:53;1.70;99.90
7004;DHT22;3542;48.812;9.146;2022-12-11T11:11:36;1.80;99.90
7004;DHT22;3542;48.812;9.146;2022-12-11T11:14:14;1.70;99.90
7004;DHT22;3542;48.812;9.146;2022-12-11T11:16:42;1.80;99.90
7004;DHT22;3542;48.812;9.146;2022-12-11T11:19:21;1.80;99.90
7004;DHT22;3542;48.812;9.146;2022-12-11T11:21:53;1.90;99.90
7004;DHT22;3542;48.812;9.146;2022-12-11T11:24:43;1.90;99.90
7004;DHT22;3542;48.812;9.146;2022-12-11T11:27:35;2.00;99.90
7004;DHT22;3542;48.812;9.146;2022-12-11T11:30:06;2.10;99.90
7004;DHT22;3542;48.812;9.146;2022-12-11T11:32:42;2.10;99.90
7004;DHT22;3542;48.812;9.146;2022-12-11T11:37:37;2.20;99.90
7004;DHT22;3542;48.812;9.146;2022-12-11T11:40:12;2.10;99.90
7004;DHT22;3542;48.812;9.146;2022-12-11T11:43:01;2.20;99.90
7004;DHT22;3542;48.812;9.146;2022-12-11T11:45:39;2.10;99.90
7004;DHT22;3542;48.812;9.146;2022-12-11T11:49:02;2.10;99.90
7004;DHT22;3542;48.812;9.146;2022-12-11T11:51:12;2.00;99.90
7004;DHT22;3542;48.812;9.146;2022-12-11T11:53:39;2.00;99.90
7004;DHT22;3542;48.812;9.146;2022-12-11T11:56:30;2.00;99.90
7004;DHT22;3542;48.812;9.146;2022-12-11T11:59:05;1.90;99.90
7004;DHT22;3542;48.812;9.146;2022-12-11T12:01:36;1.80;99.90
7004;DHT22;3542;48.812;9.146;2022-12-11T12:04:03;1.80;99.90
7004;DHT22;3542;48.812;9.146;2022-12-11T12:15:05;1.40;99.90
7004;DHT22;3542;48.812;9.146;2022-12-11T12:23:38;1.30;99.90
7004;DHT22;3542;48.812;9.146;2022-12-11T12:31:57;1.30;99.90
7004;DHT22;3542;48.812;9.146;2022-12-11T12:46:02;1.60;99.90
7004;DHT22;3542;48.812;9.146;2022-12-11T12:48:31;1.60;99.90
7004;DHT22;3542;48.812;9.146;2022-12-11T12:50:57;1.60;99.90
7004;DHT22;3542;48.812;9.146;2022-12-11T12:53:26;1.60;99.90
7004;DHT22;3542;48.812;9.146;2022-12-11T12:55:53;1.70;99.90
7004;DHT22;3542;48.812;9.146;2022-12-11T13:01:16;1.60;99.90
7004;DHT22;3542;48.812;9.146;2022-12-11T13:04:01;1.60;99.90
7004;DHT22;3542;48.812;9.146;2022-12-11T13:06:44;1.50;99.90
7004;DHT22;3542;48.812;9.146;2022-12-11T13:09:17;1.40;99.90
7004;DHT22;3542;48.812;9.146;2022-12-11T13:11:44;1.30;99.90
7004;DHT22;3542;48.812;9.146;2022-12-11T13:16:44;1.30;99.90
7004;DHT22;3542;48.812;9.146;2022-12-11T13:25:16;1.10;99.90
7004;DHT22;3542;48.812;9.146;2022-12-11T13:27:42;1.00;99.90
7004;DHT22;3542;48.812;9.146;2022-12-11T13:32:59;0.90;99.90
7004;DHT22;3542;48.812;9.146;2022-12-11T13:35:26;0.80;99.90
7004;DHT22;3542;48.812;9.146;2022-12-11T13:38:00;0.90;99.90
7004;DHT22;3542;48.812;9.146;2022-12-11T13:40:34;0.90;99.90
7004;DHT22;3542;48.812;9.146;2022-12-11T13:43:03;1.00;99.90
7004;DHT22;3542;48.812;9.146;2022-12-11T13:45:57;1.10;99.90
7004;DHT22;3542;48.812;9.146;2022-12-11T13:48:28;1.00;99.90
7004;DHT22;3542;48.812;9.146;2022-12-11T13:50:56;1.00;99.90
7004;DHT22;3542;48.812;9.146;2022-12-11T13:53:23;0.90;99.90
7004;DHT22;3542;48.812;9.146;2022-12-11T13:58:25;0.80;99.90
7004;DHT22;3542;48.812;9.146;2022-12-11T14:03:32;0.70;99.90
7004;DHT22;3542;48.812;9.146;2022-12-11T14:05:59;0.60;99.90
7004;DHT22;3542;48.812;9.146;2022-12-11T14:08:30;0.60;99.90
7004;DHT22;3542;48.812;9.146;2022-12-11T14:10:57;0.60;99.90
7004;DHT22;3542;48.812;9.146;2022-12-11T14:13:25;0.70;99.90
7004;DHT22;3542;48.812;9.146;2022-12-11T14:15:52;0.60;99.90
7004;DHT22;3542;48.812;9.146;2022-12-11T14:18:27;0.60;99.90
7004;DHT22;3542;48.812;9.146;2022-12-11T14:21:00;0.60;99.90
7004;DHT22;3542;48.812;9.146;2022-12-11T14:23:30;0.60;99.90
7004;DHT22;3542;48.812;9.146;2022-12-11T14:26:02;0.60;99.90
7004;DHT22;3542;48.812;9.146;2022-12-11T14:28:34;0.60;99.90
7004;DHT22;3542;48.812;9.146;2022-12-11T14:31:01;0.60;99.90
7004;DHT22;3542;48.812;9.146;2022-12-11T14:33:32;0.60;99.90
7004;DHT22;3542;48.812;9.146;2022-12-11T14:35:59;0.60;99.90
7004;DHT22;3542;48.812;9.146;2022-12-11T14:38:36;0.60;99.90
7004;DHT22;3542;48.812;9.146;2022-12-11T14:41:16;0.60;99.90
7004;DHT22;3542;48.812;9.146;2022-12-11T14:43:50;0.60;99.90
7004;DHT22;3542;48.812;9.146;2022-12-11T14:46:21;0.50;99.90
7004;DHT22;3542;48.812;9.146;2022-12-11T14:48:55;0.50;99.90
7004;DHT22;3542;48.812;9.146;2022-12-11T14:51:27;0.40;99.90
7004;DHT22;3542;48.812;9.146;2022-12-11T14:53:54;0.40;99.90
7004;DHT22;3542;48.812;9.146;2022-12-11T14:56:23;0.40;99.90
7004;DHT22;3542;48.812;9.146;2022-12-11T14:59:05;0.40;99.90
7004;DHT22;3542;48.812;9.146;2022-12-11T15:01:35;0.40;99.90
7004;DHT22;3542;48.812;9.146;2022-12-11T15:06:44;0.20;99.90
7004;DHT22;3542;48.812;9.146;2022-12-11T15:09:20;0.20;99.90
7004;DHT22;3542;48.812;9.146;2022-12-11T15:11:47;0.20;99.90
7004;DHT22;3542;48.812;9.146;2022-12-11T15:14:15;0.10;99.90
7004;DHT22;3542;48.812;9.146;2022-12-11T15:16:42;0.10;99.90
7004;DHT22;3542;48.812;9.146;2022-12-11T15:19:21;0.10;99.90
7004;DHT22;3542;48.812;9.146;2022-12-11T15:21:47;0.00;99.90
7004;DHT22;3542;48.812;9.146;2022-12-11T15:24:34;0.00;99.90
7004;DHT22;3542;48.812;9.146;2022-12-11T15:27:01;0.00;99.90
7004;DHT22;3542;48.812;9.146;2022-12-11T15:29:33;0.00;99.90
7004;DHT22;3542;48.812;9.146;2022-12-11T15:34:41;0.00;99.90
7004;DHT22;3542;48.812;9.146;2022-12-11T15:37:18;0.00;99.90
7004;DHT22;3542;48.812;9.146;2022-12-11T15:39:43;0.10;99.90
7004;DHT22;3542;48.812;9.146;2022-12-11T15:42:11;0.10;99.90
7004;DHT22;3542;48.812;9.146;2022-12-11T15:44:40;0.10;99.90
7004;DHT22;3542;48.812;9.146;2022-12-11T15:47:13;0.10;99.90
7004;DHT22;3542;48.812;9.146;2022-12-11T15:49:40;0.20;99.90
7004;DHT22;3542;48.812;9.146;2022-12-11T15:52:05;0.20;99.90
7004;DHT22;3542;48.812;9.146;2022-12-11T15:54:31;0.10;99.90
7004;DHT22;3542;48.812;9.146;2022-12-11T15:56:57;0.20;99.90
7004;DHT22;3542;48.812;9.146;2022-12-11T15:59:24;0.20;99.90
7004;DHT22;3542;48.812;9.146;2022-12-11T16:01:50;0.30;99.90
7004;DHT22;3542;48.812;9.146;2022-12-11T16:04:15;0.30;99.90
7004;DHT22;3542;48.812;9.146;2022-12-11T16:06:41;0.30;99.90
7004;DHT22;3542;48.812;9.146;2022-12-11T16:09:10;0.20;99.90
7004;DHT22;3542;48.812;9.146;2022-12-11T16:11:36;0.20;99.90
7004;DHT22;3542;48.812;9.146;2022-12-11T16:14:01;0.30;99.90
7004;DHT22;3542;48.812;9.146;2022-12-11T16:16:29;0.30;99.90
7004;DHT22;3542;48.812;9.146;2022-12-11T16:18:55;0.30;99.90
7004;DHT22;3542;48.812;9.146;2022-12-11T16:21:20;0.20;99.90
7004;DHT22;3542;48.812;9.146;2022-12-11T16:23:46;0.20;99.90
7004;DHT22;3542;48.812;9.146;2022-12-11T16:26:11;0.10;99.90
7004;DHT22;3542;48.812;9.146;2022-12-11T16:28:38;0.10;99.90
7004;DHT22;3542;48.812;9.146;2022-12-11T16:31:12;0.10;99.90
7004;DHT22;3542;48.812;9.146;2022-12-11T16:33:38;0.10;99.90
7004;DHT22;3542;48.812;9.146;2022-12-11T16:36:15;0.10;99.90
7004;DHT22;3542;48.812;9.146;2022-12-11T16:38:46;0.00;99.90
7004;DHT22;3542;48.812;9.146;2022-12-11T16:41:11;0.00;99.90
7004;DHT22;3542;48.812;9.146;2022-12-11T16:43:37;0.00;99.90
7004;DHT22;3542;48.812;9.146;2022-12-11T16:46:03;-0.10;99.90
7004;DHT22;3542;48.812;9.146;2022-12-11T16:48:28;-0.20;99.90
7004;DHT22;3542;48.812;9.146;2022-12-11T16:50:55;-0.20;99.90
7004;DHT22;3542;48.812;9.146;2022-12-11T16:53:21;-0.20;99.90
7004;DHT22;3542;48.812;9.146;2022-12-11T16:55:47;-0.30;99.90
7004;DHT22;3542;48.812;9.146;2022-12-11T16:58:13;-0.30;99.90
7004;DHT22;3542;48.812;9.146;2022-12-11T17:00:46;-0.40;99.90
7004;DHT22;3542;48.812;9.146;2022-12-11T17:03:12;-0.30;99.90
7004;DHT22;3542;48.812;9.146;2022-12-11T17:05:39;-0.30;99.90
7004;DHT22;3542;48.812;9.146;2022-12-11T17:08:08;-0.40;99.90
7004;DHT22;3542;48.812;9.146;2022-12-11T17:10:38;-0.50;99.90
7004;DHT22;3542;48.812;9.146;2022-12-11T17:13:05;-0.50;99.90
7004;DHT22;3542;48.812;9.146;2022-12-11T17:15:30;-0.60;99.90
7004;DHT22;3542;48.812;9.146;2022-12-11T17:17:56;-0.60;99.90
7004;DHT22;3542;48.812;9.146;2022-12-11T17:20:21;-0.60;99.90
7004;DHT22;3542;48.812;9.146;2022-12-11T17:22:47;-0.50;99.90
7004;DHT22;3542;48.812;9.146;2022-12-11T17:25:12;-0.50;99.90
7004;DHT22;3542;48.812;9.146;2022-12-11T17:27:43;-0.50;99.90
7004;DHT22;3542;48.812;9.146;2022-12-11T17:30:09;-0.50;99.90
7004;DHT22;3542;48.812;9.146;2022-12-11T17:32:35;-0.50;99.90
7004;DHT22;3542;48.812;9.146;2022-12-11T17:35:01;-0.50;99.90
7004;DHT22;3542;48.812;9.146;2022-12-11T17:37:26;-0.50;99.90
7004;DHT22;3542;48.812;9.146;2022-12-11T17:39:52;-0.40;99.90
7004;DHT22;3542;48.812;9.146;2022-12-11T17:42:17;-0.40;99.90
7004;DHT22;3542;48.812;9.146;2022-12-11T17:44:43;-0.40;99.90
7004;DHT22;3542;48.812;9.146;2022-12-11T17:47:09;-0.30;99.90
7004;DHT22;3542;48.812;9.146;2022-12-11T17:49:36;-0.20;99.90
7004;DHT22;3542;48.812;9.146;2022-12-11T17:52:02;-0.20;99.90
7004;DHT22;3542;48.812;9.146;2022-12-11T17:54:28;-0.20;99.90
7004;DHT22;3542;48.812;9.146;2022-12-11T17:56:53;-0.10;99.90
7004;DHT22;3542;48.812;9.146;2022-12-11T17:59:19;-0.10;99.90
7004;DHT22;3542;48.812;9.146;2022-12-11T18:01:44;-0.10;99.90
7004;DHT22;3542;48.812;9.146;2022-12-11T18:04:10;-0.10;99.90
7004;DHT22;3542;48.812;9.146;2022-12-11T18:06:36;-0.10;99.90
7004;DHT22;3542;48.812;9.146;2022-12-11T18:09:02;-0.10;99.90
7004;DHT22;3542;48.812;9.146;2022-12-11T18:11:27;-0.10;99.90
7004;DHT22;3542;48.812;9.146;2022-12-11T18:13:53;-0.10;99.90
7004;DHT22;3542;48.812;9.146;2022-12-11T18:16:29;-0.10;99.90
7004;DHT22;3542;48.812;9.146;2022-12-11T18:18:55;0.00;99.90
7004;DHT22;3542;48.812;9.146;2022-12-11T18:21:27;-0.10;99.90
7004;DHT22;3542;48.812;9.146;2022-12-11T18:23:53;-0.10;99.90
7004;DHT22;3542;48.812;9.146;2022-12-11T18:26:19;-0.10;99.90
7004;DHT22;3542;48.812;9.146;2022-12-11T18:28:46;-0.20;99.90
7004;DHT22;3542;48.812;9.146;2022-12-11T18:31:12;-0.20;99.90
7004;DHT22;3542;48.812;9.146;2022-12-11T18:33:39;-0.30;99.90
7004;DHT22;3542;48.812;9.146;2022-12-11T18:36:05;-0.40;99.90
7004;DHT22;3542;48.812;9.146;2022-12-11T18:38:31;-0.40;99.90
7004;DHT22;3542;48.812;9.146;2022-12-11T18:41:00;-0.50;99.90
7004;DHT22;3542;48.812;9.146;2022-12-11T18:43:26;-0.60;99.90
7004;DHT22;3542;48.812;9.146;2022-12-11T18:45:51;-0.70;99.90
7004;DHT22;3542;48.812;9.146;2022-12-11T18:48:17;-0.80;99.90
7004;DHT22;3542;48.812;9.146;2022-12-11T18:50:48;-0.80;99.90
7004;DHT22;3542;48.812;9.146;2022-12-11T18:53:14;-0.90;99.90
7004;DHT22;3542;48.812;9.146;2022-12-11T18:55:42;-1.00;99.90
7004;DHT22;3542;48.812;9.146;2022-12-11T18:58:08;-1.00;99.90
7004;DHT22;3542;48.812;9.146;2022-12-11T19:00:36;-1.10;99.90
7004;DHT22;3542;48.812;9.146;2022-12-11T19:03:02;-1.10;99.90